Monday, November 20, 2017, 4:12 AM EST

KRDG, Reading Regional Airport

Location: Reading, PA, United States Lat: 40.367
Local Time: 4:12 AM EST ( 9:12 GMT) Lon: -75.967
Time Zone: US/Eastern Elev: 344 ft

Show me the last for .
Show Decoded

2017-11-20 03:54 METAR KRDG 200854Z AUTO 27009KT 10SM CLR 02/M03 A2996 RMK AO2 SLP153 T00221033
                 51022 =
2017-11-20 02:54 METAR KRDG 200754Z AUTO 27007KT 10SM OVC070 03/M03 A2995 RMK AO2 SLP149
                 T00281028 =
2017-11-20 01:54 METAR KRDG 200654Z AUTO 27009KT 10SM CLR 02/M02 A2993 RMK AO2 SLP142 T00221022 =
2017-11-20 00:54 METAR KRDG 200554Z AUTO 27012G20KT 10SM SCT070 03/M03 A2990 RMK AO2 SLP130
                 T00331028 10056 20033 53020 =
2017-11-19 23:54 METAR KRDG 200454Z AUTO 29011KT 10SM FEW060 FEW070 03/M02 A2987 RMK AO2 SLP122
                 T00331022 401500033 =
2017-11-19 22:54 METAR KRDG 200354Z AUTO 27009KT 10SM FEW047 FEW090 03/M02 A2985 RMK AO2 SLP114
                 T00331022 =
2017-11-19 21:54 METAR KRDG 200254Z AUTO 28011KT 10SM CLR 04/M02 A2984 RMK AO2 SLP110 T00391022
                 53021 =
2017-11-19 20:54 METAR KRDG 200154Z AUTO 27010KT 10SM CLR 04/M02 A2981 RMK AO2 SLP101 T00391022 =
2017-11-19 19:54 METAR KRDG 200054Z AUTO 27009KT 10SM FEW080 04/M02 A2979 RMK AO2 SLP093
                 T00441017 =
2017-11-19 18:54 METAR KRDG 192354Z AUTO 28011G17KT 10SM BKN045 BKN075 06/M01 A2977 RMK AO2 PK
                 WND 28029/2310 SLP088 T00561011 10106 20056 53032 =
2017-11-19 17:54 METAR KRDG 192254Z 28010KT 10SM SCT047 BKN070 07/M02 A2974 RMK AO2 SLP077
                 T00671022 =
2017-11-19 16:54 METAR KRDG 192154Z 30013G21KT 10SM BKN060 07/M02 A2971 RMK AO2 SLP065 T00671022
                 =
2017-11-19 15:54 METAR KRDG 192054Z 30019G26KT 10SM BKN055 08/M02 A2968 RMK AO2 PK WND 31026/2046
                 SLP055 T00781017 53023 =
2017-11-19 14:54 METAR KRDG 191954Z 29020G26KT 10SM BKN050 08/M01 A2965 RMK AO2 PK WND 28030/1900
                 SLP044 T00831006 =
2017-11-19 13:54 METAR KRDG 191854Z 28021G26KT 10SM CLR 09/01 A2962 RMK AO2 PK WND 29029/1800
                 SLP036 T00940011 =
2017-11-19 12:54 METAR KRDG 191754Z 28020G30KT 10SM SCT047 BKN055 11/01 A2961 RMK AO2 PK WND
                 30032/1657 SLP031 T01060011 10106 20083 51021 =
2017-11-19 11:54 METAR KRDG 191654Z 30020G25KT 10SM BKN050 10/01 A2960 RMK AO2 PK WND 30035/1609
                 SLP028 T01000006 =
2017-11-19 10:54 METAR KRDG 191554Z 29018G31KT 10SM BKN049 BKN055 09/01 A2959 RMK AO2 PK WND
                 30035/1541 SLP024 T00940011 =
2017-11-19 09:54 METAR KRDG 191454Z 30023G29KT 10SM BKN046 09/01 A2955 RMK AO2 PK WND 29038/1409
                 SLP011 T00890011 51047 =
2017-11-19 08:54 METAR KRDG 191354Z AUTO 29024G31KT 10SM BKN043 09/02 A2950 RMK AO2 PK WND
                 29035/1332 SLP997 T00890022 =
2017-11-19 07:54 METAR KRDG 191254Z AUTO 29021G34KT 10SM CLR 08/02 A2945 RMK AO2 PK WND
                 29034/1247 SLP980 T00830022 =
2017-11-19 06:54 METAR KRDG 191154Z AUTO 28019G28KT 10SM OVC040 09/03 A2941 RMK AO2 PK WND
                 28036/1127 PRESRR SLP964 60015 70078 T00890033 10150 20089 53065 =
2017-11-19 05:54 METAR KRDG 191054Z AUTO 27019G36KT 10SM BKN034 BKN041 12/06 A2932 RMK AO2 PK WND
                 27041/1036 WSHFT 0958 RAB04E18 PRESRR SLP933 P0000 T01170061 =
2017-11-19 05:18 METAR KRDG 191018Z AUTO 26022G37KT 10SM SCT027 BKN039 OVC070 14/11 A2925 RMK AO2
                 PK WND 25037/1009 WSHFT 0958 RAB04E18 P0000 T01440106 =
2017-11-19 04:54 METAR KRDG 190954Z AUTO 20017G23KT 10SM FEW022 BKN039 BKN047 14/13 A2923 RMK AO2
                 PK WND 19028/0908 SLP904 T01440128 =

Support USWX by starting your Amazon purchase here.